地図

経路データ

SID SEASON NUMBER BASIN SUBBASIN NAME ISO_TIME NATURE LAT LON WMO_WIND WMO_PRES WMO_AGENCY TRACK_TYPE DIST2LAND LANDFALL IFLAG USA_AGENCY USA_ATCF_ID USA_LAT USA_LON USA_RECORD USA_STATUS USA_WIND USA_PRES USA_SSHS USA_R34_NE USA_R34_SE USA_R34_SW USA_R34_NW USA_R50_NE USA_R50_SE USA_R50_SW USA_R50_NW USA_R64_NE USA_R64_SE USA_R64_SW USA_R64_NW USA_POCI USA_ROCI USA_RMW USA_EYE TOKYO_LAT TOKYO_LON TOKYO_GRADE TOKYO_WIND TOKYO_PRES TOKYO_R50_DIR TOKYO_R50_LONG TOKYO_R50_SHORT TOKYO_R30_DIR TOKYO_R30_LONG TOKYO_R30_SHORT TOKYO_LAND CMA_LAT CMA_LON CMA_CAT CMA_WIND CMA_PRES HKO_LAT HKO_LON HKO_CAT HKO_WIND HKO_PRES NEWDELHI_LAT NEWDELHI_LON NEWDELHI_GRADE NEWDELHI_WIND NEWDELHI_PRES NEWDELHI_CI NEWDELHI_DP NEWDELHI_POCI REUNION_LAT REUNION_LON REUNION_TYPE REUNION_WIND REUNION_PRES REUNION_TNUM REUNION_CI REUNION_RMW REUNION_R34_NE REUNION_R34_SE REUNION_R34_SW REUNION_R34_NW REUNION_R50_NE REUNION_R50_SE REUNION_R50_SW REUNION_R50_NW REUNION_R64_NE REUNION_R64_SE REUNION_R64_SW REUNION_R64_NW BOM_LAT BOM_LON BOM_TYPE BOM_WIND BOM_PRES BOM_TNUM BOM_CI BOM_RMW BOM_R34_NE BOM_R34_SE BOM_R34_SW BOM_R34_NW BOM_R50_NE BOM_R50_SE BOM_R50_SW BOM_R50_NW BOM_R64_NE BOM_R64_SE BOM_R64_SW BOM_R64_NW BOM_ROCI BOM_POCI BOM_EYE BOM_POS_METHOD BOM_PRES_METHOD NADI_LAT NADI_LON NADI_CAT NADI_WIND NADI_PRES WELLINGTON_LAT WELLINGTON_LON WELLINGTON_WIND WELLINGTON_PRES DS824_LAT DS824_LON DS824_STAGE DS824_WIND DS824_PRES TD9636_LAT TD9636_LON TD9636_STAGE TD9636_WIND TD9636_PRES TD9635_LAT TD9635_LON TD9635_WIND TD9635_PRES TD9635_ROCI NEUMANN_LAT NEUMANN_LON NEUMANN_CLASS NEUMANN_WIND NEUMANN_PRES MLC_LAT MLC_LON MLC_CLASS MLC_WIND MLC_PRES USA_GUST BOM_GUST BOM_GUST_PER REUNION_GUST REUNION_GUST_PER USA_SEAHGT USA_SEARAD_NE USA_SEARAD_SE USA_SEARAD_SW USA_SEARAD_NW STORM_SPEED STORM_DIR
1902217N20129 1902 28 WP MM NOT_NAMED 1902-08-04 16:00:00 NR 20.3000 128.700 main 704 667 __________O___ -1 20.3000 128.700 7 12 282
1902217N20129 1902 28 WP MM NOT_NAMED 1902-08-04 18:00:00 NR 20.3851 128.279 main 667 612 __________P___ -1 20.3851 128.279 7 12 282
1902217N20129 1902 28 WP MM NOT_NAMED 1902-08-04 21:00:00 NR 20.5110 127.660 main 612 560 __________P___ -1 20.5110 127.660 7 12 283
1902217N20129 1902 28 WP MM NOT_NAMED 1902-08-05 00:00:00 NR 20.6353 127.079 main 560 518 __________P___ -1 20.6353 127.079 7 11 284
1902217N20129 1902 28 WP MM NOT_NAMED 1902-08-05 03:00:00 NR 20.7588 126.557 main 524 506 __________P___ -1 20.7588 126.557 7 10 285
1902217N20129 1902 28 WP MM NOT_NAMED 1902-08-05 04:00:00 NR 20.8000 126.400 main 506 486 __________O___ -1 20.8000 126.400 3 9 287
1902217N20129 1902 28 WP MM NOT_NAMED 1902-08-05 06:00:00 NR 20.8825 126.115 main 486 459 __________P___ -1 20.8825 126.115 3 8 289
1902217N20129 1902 28 WP MM NOT_NAMED 1902-08-05 09:00:00 NR 21.0070 125.744 main 459 443 __________P___ -1 21.0070 125.744 3 7 291
1902217N20129 1902 28 WP MM NOT_NAMED 1902-08-05 12:00:00 NR 21.1323 125.417 main 443 428 __________P___ -1 21.1323 125.417 3 6 293
1902217N20129 1902 28 WP MM NOT_NAMED 1902-08-05 15:00:00 NR 21.2580 125.105 main 430 421 __________P___ -1 21.2580 125.105 3 6 293
1902217N20129 1902 28 WP MM NOT_NAMED 1902-08-05 16:00:00 NR 21.3000 125.000 main 421 398 __________O___ -1 21.3000 125.000 4 7 290
1902217N20129 1902 28 WP MM NOT_NAMED 1902-08-05 18:00:00 NR 21.3781 124.756 main 398 356 __________P___ -1 21.3781 124.756 4 7 289
1902217N20129 1902 28 WP MM NOT_NAMED 1902-08-05 21:00:00 NR 21.4951 124.390 main 356 315 __________P___ -1 21.4951 124.390 4 7 290
1902217N20129 1902 28 WP MM NOT_NAMED 1902-08-06 00:00:00 NR 21.6176 124.035 main 315 277 __________P___ -1 21.6176 124.035 4 7 292
1902217N20129 1902 28 WP MM NOT_NAMED 1902-08-06 03:00:00 NR 21.7516 123.703 main 277 268 __________P___ -1 21.7516 123.703 4 7 294
1902217N20129 1902 28 WP MM NOT_NAMED 1902-08-06 04:00:00 NR 21.8000 123.600 main 268 245 __________O___ -1 21.8000 123.600 4 6 297
1902217N20129 1902 28 WP MM NOT_NAMED 1902-08-06 06:00:00 NR 21.8972 123.402 main 245 207 __________P___ -1 21.8972 123.402 4 6 300
1902217N20129 1902 28 WP MM NOT_NAMED 1902-08-06 09:00:00 NR 22.0556 123.131 main 207 183 __________P___ -1 22.0556 123.131 4 6 305
1902217N20129 1902 28 WP MM NOT_NAMED 1902-08-06 12:00:00 NR 22.2319 122.888 main 183 154 __________P___ -1 22.2319 122.888 4 6 311
1902217N20129 1902 28 WP MM NOT_NAMED 1902-08-06 15:00:00 NR 22.4291 122.668 main 154 140 __________P___ -1 22.4291 122.668 4 6 315
1902217N20129 1902 28 WP MM NOT_NAMED 1902-08-06 16:00:00 NR 22.5000 122.600 main 140 116 __________O___ -1 22.5000 122.600 4 6 313
1902217N20129 1902 28 WP MM NOT_NAMED 1902-08-06 18:00:00 NR 22.6495 122.414 main 116 84 __________P___ -1 22.6495 122.414 4 7 314
1902217N20129 1902 28 WP MM NOT_NAMED 1902-08-06 21:00:00 NR 22.8925 122.153 main 84 61 __________P___ -1 22.8925 122.153 4 7 320
1902217N20129 1902 28 WP MM NOT_NAMED 1902-08-07 00:00:00 NR 23.1500 121.960 main 61 51 __________P___ -1 23.1500 121.960 4 6 335
1902217N20129 1902 28 WP MM NOT_NAMED 1902-08-07 03:00:00 NR 23.4128 121.888 main 51 46 __________P___ -1 23.4128 121.888 4 5 351
1902217N20129 1902 28 WP MM NOT_NAMED 1902-08-07 04:00:00 NR 23.5000 121.900 main 46 42 __________O___ -1 23.5000 121.900 4 6 22
1902217N20129 1902 28 WP MM NOT_NAMED 1902-08-07 06:00:00 NR 23.6773 121.999 main 50 50 __________P___ -1 23.6773 121.999 4 7 38
1902217N20129 1902 28 WP MM NOT_NAMED 1902-08-07 09:00:00 NR 23.9436 122.274 main 74 67 __________P___ -1 23.9436 122.274 4 8 49
1902217N20129 1902 28 WP MM NOT_NAMED 1902-08-07 12:00:00 NR 24.1987 122.649 main 78 83 __________P___ -1 24.1987 122.649 4 9 56
1902217N20129 1902 28 WP MM NOT_NAMED 1902-08-07 15:00:00 NR 24.4302 123.063 main 121 121 __________P___ -1 24.4302 123.063 4 9 59
1902217N20129 1902 28 WP MM NOT_NAMED 1902-08-07 16:00:00 NR 24.5000 123.200 main 131 131 __________O___ -1 24.5000 123.200 4 8 63
1902217N20129 1902 28 WP MM NOT_NAMED 1902-08-07 18:00:00 NR 24.6019 123.439 main 148 157 __________P___ -1 24.6019 123.439 4 7 67
1902217N20129 1902 28 WP MM NOT_NAMED 1902-08-07 21:00:00 NR 24.7291 123.803 main 184 184 __________P___ -1 24.7291 123.803 4 7 69
1902217N20129 1902 28 WP MM NOT_NAMED 1902-08-08 00:00:00 NR 24.8587 124.161 main 221 221 __________P___ -1 24.8587 124.161 4 7 65
1902217N20129 1902 28 WP MM NOT_NAMED 1902-08-08 03:00:00 NR 25.0281 124.496 main 251 251 __________P___ -1 25.0281 124.496 4 7 59
1902217N20129 1902 28 WP MM NOT_NAMED 1902-08-08 04:00:00 NR 25.1000 124.600 main 261 261 __________O___ -1 25.1000 124.600 4 7 47
1902217N20129 1902 28 WP MM NOT_NAMED 1902-08-08 06:00:00 NR 25.2743 124.790 main 283 283 __________P___ -1 25.2743 124.790 4 8 40
1902217N20129 1902 28 WP MM NOT_NAMED 1902-08-08 09:00:00 NR 25.5861 125.049 main 308 318 __________P___ -1 25.5861 125.049 4 8 34
1902217N20129 1902 28 WP MM NOT_NAMED 1902-08-08 12:00:00 NR 25.9500 125.289 main 349 349 __________P___ -1 25.9500 125.289 4 9 29
1902217N20129 1902 28 WP MM NOT_NAMED 1902-08-08 15:00:00 NR 26.3566 125.522 main 383 383 __________P___ -1 26.3566 125.522 4 9 27
1902217N20129 1902 28 WP MM NOT_NAMED 1902-08-08 16:00:00 NR 26.5000 125.600 main 397 397 __________O___ -1 26.5000 125.600 4 10 26
1902217N20129 1902 28 WP MM NOT_NAMED 1902-08-08 18:00:00 NR 26.7965 125.759 main 429 429 __________P___ -1 26.7965 125.759 4 10 25
1902217N20129 1902 28 WP MM NOT_NAMED 1902-08-08 21:00:00 NR 27.2613 126.005 main 445 442 __________P___ -1 27.2613 126.005 4 10 25
1902217N20129 1902 28 WP MM NOT_NAMED 1902-08-09 00:00:00 NR 27.7435 126.257 main 452 443 __________P___ -1 27.7435 126.257 4 11 25
1902217N20129 1902 28 WP MM NOT_NAMED 1902-08-09 03:00:00 NR 28.2353 126.514 main 452 449 __________P___ -1 28.2353 126.514 4 11 25
1902217N20129 1902 28 WP MM NOT_NAMED 1902-08-09 04:00:00 NR 28.4000 126.600 main 456 __________O___ -1 28.4000 126.600 4 11 25

デジタル台風データ・検索

IBTrACS Databaseについて

本データベースは、米国NOAAが公開する1842年以降の世界の熱帯低気圧のベストトラックデータアーカイブInternational Best Track Archive for Climate Stewardship (IBTrACS)を、ウェブで閲覧しやすい形式に変換したものです。

最終更新日:2021-10-21